createdAt,value
2023-03-17T00:00:47.099Z,6.23
2023-03-17T00:03:29.654Z,6.49
2023-03-17T00:05:59.854Z,6.38
2023-03-17T00:08:31.607Z,6.48
2023-03-17T00:10:59.296Z,6.36
2023-03-17T00:13:26.971Z,6.30
2023-03-17T00:16:04.832Z,6.29
2023-03-17T00:18:33.376Z,6.51
2023-03-17T00:21:01.094Z,6.41
2023-03-17T00:23:28.624Z,6.43
2023-03-17T00:25:57.230Z,6.40
2023-03-17T00:28:27.361Z,6.32
2023-03-17T00:30:58.956Z,5.96
2023-03-17T00:33:29.810Z,6.29
2023-03-17T00:35:58.606Z,6.14
2023-03-17T00:38:25.867Z,6.51
2023-03-17T00:40:53.095Z,6.37
2023-03-17T00:43:20.651Z,6.13
2023-03-17T00:45:48.149Z,6.04
2023-03-17T00:48:21.833Z,6.20
2023-03-17T00:50:50.712Z,6.06
2023-03-17T00:53:21.481Z,6.23
2023-03-17T00:55:49.267Z,5.98
2023-03-17T00:58:32.560Z,5.98
2023-03-17T01:01:00.880Z,6.26
2023-03-17T01:03:28.804Z,6.11
2023-03-17T01:05:59.566Z,6.24
2023-03-17T01:08:30.080Z,6.02
2023-03-17T01:10:58.504Z,6.12
2023-03-17T01:13:26.168Z,6.24
2023-03-17T01:15:55.712Z,6.17
2023-03-17T01:18:23.494Z,6.10
2023-03-17T01:20:51.788Z,5.91
2023-03-17T01:23:19.249Z,6.14
2023-03-17T01:25:46.386Z,5.85
2023-03-17T01:28:16.769Z,6.24
2023-03-17T01:30:45.129Z,6.20
2023-03-17T01:33:14.600Z,6.21
2023-03-17T01:35:43.841Z,6.14
2023-03-17T01:38:15.032Z,6.16
2023-03-17T01:40:49.444Z,5.95
2023-03-17T01:43:28.120Z,6.43
2023-03-17T01:46:25.266Z,6.24
2023-03-17T01:49:30.781Z,5.88
2023-03-17T01:52:09.985Z,5.95
2023-03-17T01:54:45.986Z,6.22
2023-03-17T01:57:18.308Z,6.22
2023-03-17T02:00:11.970Z,6.02
2023-03-17T02:02:44.244Z,5.94
2023-03-17T02:05:17.890Z,5.88
2023-03-17T02:07:45.283Z,5.95
2023-03-17T02:10:17.523Z,6.01
2023-03-17T02:12:50.448Z,6.37
2023-03-17T02:15:17.881Z,5.82
2023-03-17T02:17:45.161Z,6.00
2023-03-17T02:20:21.621Z,6.02
2023-03-17T02:22:54.753Z,6.02
2023-03-17T02:25:24.674Z,5.86
2023-03-17T02:27:59.920Z,6.15
2023-03-17T02:30:28.967Z,5.82
2023-03-17T02:32:56.316Z,6.05
2023-03-17T02:35:23.824Z,5.82
2023-03-17T02:37:50.965Z,5.57
2023-03-17T02:40:18.814Z,5.80
2023-03-17T02:42:46.656Z,6.13
2023-03-17T02:45:14.445Z,6.03
2023-03-17T02:47:42.631Z,5.68
2023-03-17T02:50:25.004Z,5.49
2023-03-17T02:52:52.184Z,5.48
2023-03-17T02:55:20.341Z,5.50
2023-03-17T02:57:47.484Z,5.43
2023-03-17T03:00:15.468Z,5.53
2023-03-17T03:02:42.715Z,5.57
2023-03-17T03:05:10.830Z,5.66
2023-03-17T03:07:38.042Z,5.82
2023-03-17T03:10:06.093Z,5.74
2023-03-17T03:12:33.521Z,5.79
2023-03-17T03:15:00.788Z,6.16
2023-03-17T03:17:27.970Z,6.20
2023-03-17T03:19:55.351Z,5.98
2023-03-17T03:22:22.476Z,6.15
2023-03-17T03:24:50.147Z,5.80
2023-03-17T03:27:17.704Z,5.89
2023-03-17T03:29:44.997Z,6.07
2023-03-17T03:32:12.280Z,5.94
2023-03-17T03:34:39.464Z,6.10
2023-03-17T03:37:06.743Z,5.97
2023-03-17T03:39:33.915Z,5.98
2023-03-17T03:42:01.325Z,5.88
2023-03-17T03:44:28.459Z,5.82
2023-03-17T03:46:55.603Z,5.40
2023-03-17T03:49:22.993Z,5.31
2023-03-17T03:51:50.261Z,5.33
2023-03-17T03:54:17.413Z,5.70
2023-03-17T03:56:44.661Z,5.23
2023-03-17T03:59:11.891Z,5.25
2023-03-17T04:01:39.986Z,5.35
2023-03-17T04:04:07.462Z,5.32
2023-03-17T04:06:34.690Z,5.37
2023-03-17T04:09:02.330Z,5.24
2023-03-17T04:11:29.442Z,5.10
2023-03-17T04:13:56.639Z,5.00
2023-03-17T04:16:23.822Z,5.16
2023-03-17T04:18:51.212Z,5.40
2023-03-17T04:21:18.987Z,5.20
2023-03-17T04:23:46.519Z,5.21
2023-03-17T04:26:13.764Z,5.57
2023-03-17T04:28:40.933Z,5.64
2023-03-17T04:31:12.259Z,5.31
2023-03-17T04:33:40.482Z,4.94
2023-03-17T04:36:15.061Z,4.76
2023-03-17T04:38:42.203Z,4.84
2023-03-17T04:41:09.321Z,5.21
2023-03-17T04:43:36.467Z,4.90
2023-03-17T04:46:03.815Z,5.16
2023-03-17T04:48:31.464Z,4.86
2023-03-17T04:50:58.637Z,4.94
2023-03-17T04:53:25.811Z,4.39
2023-03-17T04:55:53.067Z,4.36
2023-03-17T04:58:30.420Z,4.23
2023-03-17T05:00:58.970Z,4.54
2023-03-17T05:03:28.164Z,4.63
2023-03-17T05:06:00.749Z,4.54
2023-03-17T05:08:28.485Z,4.88
2023-03-17T05:10:57.413Z,4.83
2023-03-17T05:13:26.448Z,4.88
2023-03-17T05:15:56.208Z,4.70
2023-03-17T05:18:25.423Z,4.67
2023-03-17T05:20:52.665Z,4.98
2023-03-17T05:23:20.604Z,4.52
2023-03-17T05:25:48.588Z,5.03
2023-03-17T05:28:15.722Z,5.05
2023-03-17T05:30:43.523Z,4.91
2023-03-17T05:33:10.730Z,4.96
2023-03-17T05:35:38.354Z,4.81
2023-03-17T05:38:05.574Z,4.93
2023-03-17T05:40:33.140Z,4.66
2023-03-17T05:43:00.407Z,5.01
2023-03-17T05:45:28.534Z,4.98
2023-03-17T05:47:55.761Z,4.54
2023-03-17T05:50:23.591Z,4.46
2023-03-17T05:52:52.222Z,4.77
2023-03-17T05:55:20.232Z,5.11
2023-03-17T05:57:47.532Z,4.72
2023-03-17T06:00:16.195Z,4.24
2023-03-17T06:02:43.458Z,4.57
2023-03-17T06:05:12.310Z,4.26
2023-03-17T06:07:51.742Z,4.33
2023-03-17T06:10:22.421Z,4.30
2023-03-17T06:12:49.580Z,4.72
2023-03-17T06:15:17.152Z,4.95
2023-03-17T06:17:44.587Z,5.12
2023-03-17T06:20:13.033Z,4.97
2023-03-17T06:22:55.158Z,5.03
2023-03-17T06:25:28.340Z,4.90
2023-03-17T06:27:56.165Z,5.25
2023-03-17T06:30:23.345Z,5.23
2023-03-17T06:32:50.735Z,5.23
2023-03-17T06:35:18.087Z,5.43
2023-03-17T06:37:45.283Z,5.23
2023-03-17T06:40:13.329Z,5.29
2023-03-17T06:42:40.489Z,5.28
2023-03-17T06:45:09.331Z,5.32
2023-03-17T06:47:37.236Z,5.39
2023-03-17T06:50:05.865Z,5.57
2023-03-17T06:52:33.092Z,5.40
2023-03-17T06:55:00.337Z,5.35
2023-03-17T06:57:27.725Z,5.33
2023-03-17T06:59:54.888Z,5.45
2023-03-17T07:02:22.054Z,5.69
2023-03-17T07:04:49.298Z,6.56
2023-03-17T07:07:16.615Z,6.60
2023-03-17T07:09:43.758Z,7.04
2023-03-17T07:12:11.203Z,7.04
2023-03-17T07:14:38.447Z,7.80
2023-03-17T07:17:06.772Z,7.86
2023-03-17T07:19:35.044Z,8.67
2023-03-17T07:22:02.186Z,9.07
2023-03-17T07:24:29.407Z,9.11
2023-03-17T07:26:56.862Z,10.16
2023-03-17T07:29:24.039Z,10.56
2023-03-17T07:31:51.223Z,10.39
2023-03-17T07:34:18.475Z,12.04
2023-03-17T07:36:45.928Z,11.62
2023-03-17T07:39:13.080Z,12.72
2023-03-17T07:41:40.267Z,12.89
2023-03-17T07:44:08.165Z,13.01
2023-03-17T07:46:35.579Z,14.58
2023-03-17T07:49:02.717Z,14.10
2023-03-17T07:51:30.080Z,15.18
2023-03-17T07:54:03.288Z,13.53
2023-03-17T07:56:32.725Z,15.05
2023-03-17T07:59:00.223Z,14.23
2023-03-17T08:01:28.735Z,15.51
2023-03-17T08:03:56.535Z,15.22
2023-03-17T08:06:25.394Z,15.23
2023-03-17T08:08:54.679Z,15.34
2023-03-17T08:11:23.292Z,13.99
2023-03-17T08:13:50.965Z,14.88
2023-03-17T08:16:18.270Z,15.93
2023-03-17T08:18:45.566Z,15.89
2023-03-17T08:21:14.745Z,15.25
2023-03-17T08:23:43.184Z,15.58
2023-03-17T08:26:10.726Z,14.36
2023-03-17T08:28:38.486Z,15.31
2023-03-17T08:31:12.090Z,15.89
2023-03-17T08:33:42.282Z,15.56
2023-03-17T08:36:11.392Z,14.77
2023-03-17T08:38:41.777Z,15.10
2023-03-17T08:41:13.331Z,14.55
2023-03-17T08:43:42.640Z,14.91
2023-03-17T08:46:19.930Z,13.91
2023-03-17T08:48:50.997Z,14.43
2023-03-17T08:51:22.123Z,14.61
2023-03-17T08:53:51.993Z,14.44
2023-03-17T08:56:19.401Z,14.78
2023-03-17T08:58:47.602Z,14.99
2023-03-17T09:01:16.026Z,15.71
2023-03-17T09:03:45.159Z,15.16
2023-03-17T09:06:13.467Z,15.41
2023-03-17T09:08:47.448Z,15.28
2023-03-17T09:11:18.475Z,15.04
2023-03-17T09:13:47.659Z,16.44
2023-03-17T09:16:17.280Z,16.22
2023-03-17T09:18:46.743Z,16.29
2023-03-17T09:21:16.082Z,16.09
2023-03-17T09:23:43.556Z,15.92
2023-03-17T09:26:12.625Z,15.92
2023-03-17T09:28:39.797Z,15.98
2023-03-17T09:31:11.331Z,15.88
2023-03-17T09:33:40.686Z,15.90
2023-03-17T09:36:10.510Z,15.29
2023-03-17T09:38:38.462Z,16.07
2023-03-17T09:41:23.460Z,15.75
2023-03-17T09:44:30.104Z,16.62
2023-03-17T09:47:34.251Z,17.27
2023-03-17T09:50:12.811Z,17.58
2023-03-17T09:52:40.532Z,17.45
2023-03-17T09:55:18.144Z,17.99
2023-03-17T09:57:46.081Z,17.47
2023-03-17T10:00:19.063Z,17.96
2023-03-17T10:02:47.261Z,17.29
2023-03-17T10:05:17.110Z,16.92
2023-03-17T10:08:31.770Z,17.21
2023-03-17T10:11:23.558Z,17.51
2023-03-17T10:14:02.228Z,17.61
2023-03-17T10:17:19.082Z,18.72
2023-03-17T10:20:00.229Z,17.26
2023-03-17T10:22:57.986Z,17.01
2023-03-17T10:25:32.553Z,16.94
2023-03-17T10:28:21.807Z,17.56
2023-03-17T10:30:49.692Z,17.47
2023-03-17T10:33:16.973Z,17.68
2023-03-17T10:35:45.035Z,17.34
2023-03-17T10:38:22.490Z,17.05
2023-03-17T10:41:05.684Z,16.77
2023-03-17T10:43:43.288Z,16.99
2023-03-17T10:46:24.262Z,17.02
2023-03-17T10:48:56.784Z,16.69
2023-03-17T10:51:36.753Z,16.91
2023-03-17T10:54:20.343Z,17.34
2023-03-17T10:56:56.875Z,16.90
2023-03-17T11:02:35.945Z,17.39
2023-03-17T11:05:22.282Z,17.89
2023-03-17T11:07:50.186Z,17.86
2023-03-17T11:10:25.771Z,17.43
2023-03-17T11:13:01.744Z,17.07
2023-03-17T11:15:34.899Z,16.74
2023-03-17T11:18:14.499Z,17.83
2023-03-17T11:20:56.349Z,17.35
2023-03-17T11:23:47.271Z,18.11
2023-03-17T11:26:51.301Z,18.01
2023-03-17T11:30:00.918Z,18.17
2023-03-17T11:33:07.242Z,18.04
2023-03-17T11:35:48.238Z,17.88
2023-03-17T11:38:29.176Z,17.35
2023-03-17T11:41:14.842Z,17.74
2023-03-17T11:44:05.577Z,17.41
2023-03-17T11:46:50.995Z,17.37
2023-03-17T11:49:24.129Z,17.89
2023-03-17T11:52:19.834Z,18.11
2023-03-17T11:55:28.601Z,17.65
2023-03-17T11:58:11.450Z,17.99
2023-03-17T12:00:52.577Z,17.37
2023-03-17T12:03:38.788Z,17.32
2023-03-17T12:06:18.126Z,17.47
2023-03-17T12:08:56.096Z,17.40
2023-03-17T12:11:31.599Z,17.45
2023-03-17T12:14:06.166Z,18.16
2023-03-17T12:16:45.859Z,17.98
2023-03-17T12:19:22.260Z,18.14
2023-03-17T12:22:00.835Z,18.29
2023-03-17T12:24:43.905Z,17.91
2023-03-17T12:27:17.925Z,18.59
2023-03-17T12:30:23.390Z,18.69
2023-03-17T12:33:28.467Z,18.88
2023-03-17T12:35:56.828Z,18.13
2023-03-17T12:38:45.014Z,17.88
2023-03-17T12:41:40.328Z,17.93
2023-03-17T12:44:27.096Z,18.41
2023-03-17T12:47:17.363Z,17.77
2023-03-17T12:50:19.846Z,18.66
2023-03-17T12:53:29.994Z,18.52
2023-03-17T12:56:16.590Z,18.52
2023-03-17T12:58:48.571Z,18.54
2023-03-17T13:01:40.600Z,18.44
2023-03-17T13:04:37.937Z,18.53
2023-03-17T13:07:26.929Z,18.33
2023-03-17T13:09:54.010Z,18.45
2023-03-17T13:12:47.590Z,18.64
2023-03-17T13:15:22.764Z,18.54
2023-03-17T13:17:50.692Z,18.22
2023-03-17T13:20:20.974Z,18.31
2023-03-17T13:23:23.557Z,18.02
2023-03-17T13:25:53.869Z,18.04
2023-03-17T13:28:34.827Z,18.06
2023-03-17T13:31:20.234Z,18.12
2023-03-17T13:34:02.603Z,17.97
2023-03-17T13:36:43.047Z,17.94
2023-03-17T13:39:40.252Z,17.53
2023-03-17T13:42:28.875Z,17.64
2023-03-17T13:45:17.210Z,17.77
2023-03-17T13:47:45.913Z,17.75
2023-03-17T13:50:24.885Z,17.72
2023-03-17T13:53:02.683Z,17.66
2023-03-17T13:55:42.455Z,17.81
2023-03-17T13:58:11.558Z,17.84
2023-03-17T14:00:45.489Z,17.89
2023-03-17T14:03:23.072Z,17.84
2023-03-17T14:05:52.634Z,17.68
2023-03-17T14:08:31.789Z,17.77
2023-03-17T14:11:23.787Z,17.62
2023-03-17T14:14:15.238Z,17.57
2023-03-17T14:16:57.767Z,17.40
2023-03-17T14:19:29.710Z,17.59
2023-03-17T14:22:24.939Z,17.31
2023-03-17T14:24:55.145Z,17.42
2023-03-17T14:27:24.355Z,17.48
2023-03-17T14:29:52.920Z,17.49
2023-03-17T14:32:24.183Z,17.26
2023-03-17T14:34:58.278Z,17.66
2023-03-17T14:37:27.558Z,17.66
2023-03-17T14:39:57.812Z,17.37
2023-03-17T14:42:29.620Z,17.32
2023-03-17T14:45:08.095Z,17.39
2023-03-17T14:47:41.276Z,17.47
2023-03-17T14:50:21.622Z,17.17
2023-03-17T14:52:50.344Z,17.13
2023-03-17T14:55:19.670Z,17.16
2023-03-17T14:57:52.962Z,17.06
2023-03-17T15:00:37.955Z,16.83
2023-03-17T15:03:19.904Z,17.05
2023-03-17T15:05:48.435Z,16.98
2023-03-17T15:08:36.167Z,16.89
2023-03-17T15:11:06.258Z,17.03
2023-03-17T15:13:37.687Z,17.02
2023-03-17T15:16:29.889Z,16.86
2023-03-17T15:19:21.367Z,16.87
2023-03-17T15:21:49.361Z,16.86
2023-03-17T15:24:40.649Z,16.84
2023-03-17T15:27:18.052Z,16.91
2023-03-17T15:29:47.315Z,16.91
2023-03-17T15:32:22.368Z,16.98
2023-03-17T15:34:52.685Z,16.85
2023-03-17T15:37:31.524Z,16.91
2023-03-17T15:40:01.204Z,16.79
2023-03-17T15:42:32.592Z,16.74
2023-03-17T15:45:01.225Z,16.80
2023-03-17T15:47:32.882Z,16.77
2023-03-17T15:50:23.951Z,16.81
2023-03-17T15:52:53.863Z,16.85
2023-03-17T15:55:25.325Z,16.81
2023-03-17T15:57:55.812Z,16.60
2023-03-17T16:00:26.555Z,16.51
2023-03-17T16:02:57.206Z,16.45
2023-03-17T16:05:29.721Z,16.54
2023-03-17T16:07:57.277Z,16.48
2023-03-17T16:10:30.727Z,16.41
2023-03-17T16:12:58.982Z,16.36
2023-03-17T16:15:31.278Z,16.42
2023-03-17T16:18:04.072Z,16.40
2023-03-17T16:20:40.037Z,16.42
2023-03-17T16:23:14.779Z,16.38
2023-03-17T16:25:43.643Z,16.26
2023-03-17T16:28:27.095Z,16.21
2023-03-17T16:30:57.561Z,16.23
2023-03-17T16:33:37.993Z,16.39
2023-03-17T16:36:06.013Z,16.03
2023-03-17T16:38:34.436Z,15.77
2023-03-17T16:41:09.229Z,15.84
2023-03-17T16:43:38.115Z,15.39
2023-03-17T16:46:07.234Z,15.66
2023-03-17T16:48:34.449Z,15.61
2023-03-17T16:51:01.706Z,15.77
2023-03-17T16:53:28.837Z,15.46
2023-03-17T16:55:56.405Z,15.53
2023-03-17T16:58:28.848Z,15.49
2023-03-17T17:01:01.447Z,15.64
2023-03-17T17:03:31.248Z,15.53
2023-03-17T17:05:58.429Z,15.67
2023-03-17T17:08:25.593Z,15.55
2023-03-17T17:10:52.804Z,15.15
2023-03-17T17:13:19.984Z,14.88
2023-03-17T17:15:47.420Z,15.13
2023-03-17T17:18:18.961Z,15.03
2023-03-17T17:20:46.228Z,14.98
2023-03-17T17:23:18.616Z,14.99
2023-03-17T17:25:46.683Z,15.18
2023-03-17T17:28:17.539Z,15.15
2023-03-17T17:30:47.787Z,15.18
2023-03-17T17:33:19.191Z,15.15
2023-03-17T17:35:48.571Z,15.02
2023-03-17T17:38:29.564Z,15.05
2023-03-17T17:41:03.088Z,15.01
2023-03-17T17:43:30.319Z,15.11
2023-03-17T17:45:57.719Z,15.08
2023-03-17T17:48:27.131Z,15.03
2023-03-17T17:50:56.404Z,14.97
2023-03-17T17:53:23.932Z,14.89
2023-03-17T17:55:51.743Z,14.86
2023-03-17T17:58:23.597Z,15.00
2023-03-17T18:00:53.872Z,14.91
2023-03-17T18:03:24.549Z,14.91
2023-03-17T18:05:56.451Z,14.87
2023-03-17T18:08:25.388Z,14.61
2023-03-17T18:10:52.696Z,14.61
2023-03-17T18:13:19.969Z,14.71
2023-03-17T18:15:47.116Z,14.55
2023-03-17T18:18:14.381Z,14.18
2023-03-17T18:20:41.692Z,14.58
2023-03-17T18:23:09.140Z,14.48
2023-03-17T18:25:37.209Z,14.11
2023-03-17T18:28:04.826Z,13.89
2023-03-17T18:30:34.796Z,13.86
2023-03-17T18:33:09.362Z,13.75
2023-03-17T18:35:37.468Z,13.72
2023-03-17T18:38:05.191Z,13.40
2023-03-17T18:40:32.557Z,13.35
2023-03-17T18:42:59.763Z,13.23
2023-03-17T18:45:27.101Z,13.21
2023-03-17T18:47:54.293Z,13.28
2023-03-17T18:50:21.903Z,13.28
2023-03-17T18:52:50.144Z,13.24
2023-03-17T18:55:18.136Z,13.27
2023-03-17T18:57:46.939Z,13.16
2023-03-17T19:00:17.353Z,13.13
2023-03-17T19:02:45.669Z,13.29
2023-03-17T19:05:14.193Z,13.16
2023-03-17T19:07:41.884Z,12.98
2023-03-17T19:10:12.146Z,12.96
2023-03-17T19:12:40.511Z,13.01
2023-03-17T19:15:09.016Z,13.15
2023-03-17T19:17:36.646Z,13.05
2023-03-17T19:20:05.742Z,13.08
2023-03-17T19:22:34.832Z,13.00
2023-03-17T19:25:04.233Z,13.00
2023-03-17T19:27:31.931Z,12.82
2023-03-17T19:29:59.062Z,12.68
2023-03-17T19:32:26.720Z,12.68
2023-03-17T19:34:53.909Z,12.78
2023-03-17T19:37:21.088Z,12.62
2023-03-17T19:39:48.270Z,13.14
2023-03-17T19:42:16.093Z,13.22
2023-03-17T19:44:43.272Z,13.22
2023-03-17T19:47:10.447Z,13.00
2023-03-17T19:49:38.260Z,12.78
2023-03-17T19:52:07.535Z,12.88
2023-03-17T19:54:44.683Z,13.17
2023-03-17T19:57:13.659Z,13.11
2023-03-17T19:59:41.389Z,13.11
2023-03-17T20:02:13.025Z,13.12
2023-03-17T20:04:40.381Z,13.22
2023-03-17T20:07:07.600Z,12.89
2023-03-17T20:09:37.709Z,13.05
2023-03-17T20:12:05.317Z,13.10
2023-03-17T20:14:32.478Z,12.57
2023-03-17T20:16:59.679Z,12.57
2023-03-17T20:19:27.526Z,12.75
2023-03-17T20:21:55.310Z,13.00
2023-03-17T20:24:22.584Z,12.85
2023-03-17T20:26:50.052Z,12.67
2023-03-17T20:29:17.421Z,13.07
2023-03-17T20:31:44.629Z,12.49
2023-03-17T20:34:12.207Z,12.88
2023-03-17T20:36:42.401Z,13.11
2023-03-17T20:39:14.678Z,13.10
2023-03-17T20:41:41.855Z,12.96
2023-03-17T20:44:09.044Z,13.06
2023-03-17T20:46:36.283Z,13.19
2023-03-17T20:49:05.581Z,12.85
2023-03-17T20:51:33.945Z,13.23
2023-03-17T20:54:02.314Z,12.82
2023-03-17T20:56:30.939Z,12.12
2023-03-17T20:58:58.618Z,12.69
2023-03-17T21:01:27.189Z,12.82
2023-03-17T21:03:54.381Z,12.62
2023-03-17T21:06:23.060Z,13.02
2023-03-17T21:08:51.342Z,12.96
2023-03-17T21:11:20.818Z,12.82
2023-03-17T21:13:47.983Z,13.10
2023-03-17T21:16:23.672Z,12.96
2023-03-17T21:18:52.491Z,13.07
2023-03-17T21:21:20.613Z,12.59
2023-03-17T21:23:48.475Z,12.75
2023-03-17T21:26:15.655Z,12.88
2023-03-17T21:28:43.416Z,12.94
2023-03-17T21:31:12.387Z,13.01
2023-03-17T21:33:40.022Z,12.82
2023-03-17T21:36:07.693Z,12.93
2023-03-17T21:38:35.708Z,12.57
2023-03-17T21:41:30.396Z,12.93
2023-03-17T21:43:58.017Z,12.85
2023-03-17T21:46:25.528Z,12.72
2023-03-17T21:48:56.937Z,12.49
2023-03-17T21:51:25.401Z,12.73
2023-03-17T21:53:53.025Z,12.72
2023-03-17T21:56:21.099Z,12.53
2023-03-17T21:58:48.936Z,12.53
2023-03-17T22:01:18.328Z,12.43
2023-03-17T22:03:45.595Z,12.19
2023-03-17T22:06:14.347Z,12.13
2023-03-17T22:08:42.003Z,12.04
2023-03-17T22:11:13.235Z,12.16
2023-03-17T22:13:41.561Z,12.04
2023-03-17T22:16:10.708Z,12.37
2023-03-17T22:18:38.574Z,12.43
2023-03-17T22:21:08.220Z,12.27
2023-03-17T22:23:41.042Z,12.24
2023-03-17T22:26:17.904Z,12.51
2023-03-17T22:28:47.834Z,12.46
2023-03-17T22:31:23.937Z,12.11
2023-03-17T22:33:55.232Z,12.65
2023-03-17T22:36:25.546Z,12.70
2023-03-17T22:38:54.085Z,12.61
2023-03-17T22:41:25.145Z,12.71
2023-03-17T22:43:52.427Z,12.62
2023-03-17T22:46:25.316Z,12.63
2023-03-17T22:48:52.453Z,12.55
2023-03-17T22:51:23.705Z,12.19
2023-03-17T22:53:51.757Z,12.42
2023-03-17T22:56:19.683Z,12.13
2023-03-17T22:58:47.459Z,12.17
2023-03-17T23:01:17.546Z,12.07
2023-03-17T23:03:45.924Z,12.01
2023-03-17T23:06:14.506Z,11.51
2023-03-17T23:08:43.389Z,11.92
2023-03-17T23:11:17.111Z,12.07
2023-03-17T23:13:46.731Z,11.98
2023-03-17T23:16:14.741Z,12.00
2023-03-17T23:18:45.421Z,12.21
2023-03-17T23:21:31.716Z,12.12
2023-03-17T23:24:00.570Z,11.83
2023-03-17T23:26:28.364Z,11.83
2023-03-17T23:28:56.155Z,11.86
2023-03-17T23:31:23.514Z,11.82
2023-03-17T23:33:51.223Z,11.89
2023-03-17T23:36:19.094Z,12.22
2023-03-17T23:38:47.305Z,11.95
2023-03-17T23:41:14.712Z,12.18
2023-03-17T23:43:42.248Z,12.22
2023-03-17T23:46:09.880Z,12.45
2023-03-17T23:48:37.709Z,12.30
2023-03-17T23:51:06.283Z,12.28
2023-03-17T23:53:33.814Z,12.26
2023-03-17T23:56:01.265Z,12.24
2023-03-17T23:58:28.469Z,12.24
